createdAt,value
2017-11-29T00:02:16.166Z,21.00
2017-11-29T00:04:43.864Z,19.63
2017-11-29T00:07:11.526Z,18.97
2017-11-29T00:09:39.153Z,19.57
2017-11-29T00:12:06.756Z,24.57
2017-11-29T00:14:34.394Z,23.30
2017-11-29T00:17:02.005Z,21.47
2017-11-29T00:19:29.696Z,20.00
2017-11-29T00:21:57.372Z,21.80
2017-11-29T00:24:25.045Z,20.17
2017-11-29T00:26:52.697Z,21.47
2017-11-29T00:29:20.383Z,22.13
2017-11-29T00:31:47.997Z,22.70
2017-11-29T00:34:15.704Z,25.40
2017-11-29T00:36:43.365Z,20.40
2017-11-29T00:39:11.081Z,19.20
2017-11-29T00:41:38.730Z,20.50
2017-11-29T00:44:06.344Z,23.57
2017-11-29T00:46:33.989Z,21.60
2017-11-29T00:49:01.637Z,20.00
2017-11-29T00:51:29.251Z,20.23
2017-11-29T00:53:56.915Z,23.33
2017-11-29T00:56:24.619Z,25.33
2017-11-29T00:58:52.380Z,24.33
2017-11-29T01:01:20.100Z,23.53
2017-11-29T01:03:47.800Z,22.37
2017-11-29T01:06:15.473Z,25.53
2017-11-29T01:08:43.154Z,22.73
2017-11-29T01:11:10.851Z,24.13
2017-11-29T01:13:38.457Z,26.13
2017-11-29T01:16:06.092Z,21.93
2017-11-29T01:18:33.689Z,23.33
2017-11-29T01:21:01.325Z,24.27
2017-11-29T01:23:28.995Z,24.27
2017-11-29T01:25:56.734Z,21.30
2017-11-29T01:28:24.336Z,23.10
2017-11-29T01:30:52.023Z,26.40
2017-11-29T01:33:19.676Z,22.50
2017-11-29T01:35:47.304Z,21.80
2017-11-29T01:38:14.953Z,27.73
2017-11-29T01:40:43.489Z,25.50
2017-11-29T01:43:11.132Z,22.47
2017-11-29T01:45:38.730Z,22.20
2017-11-29T01:48:06.360Z,23.90
2017-11-29T01:50:33.940Z,24.33
2017-11-29T01:53:01.601Z,27.10
2017-11-29T01:55:29.257Z,25.27
2017-11-29T01:57:56.880Z,20.87
2017-11-29T02:00:24.561Z,20.20
2017-11-29T02:02:52.265Z,20.20
2017-11-29T02:05:19.860Z,23.33
2017-11-29T02:07:47.549Z,25.93
2017-11-29T02:10:15.212Z,27.40
2017-11-29T02:12:42.844Z,21.90
2017-11-29T02:15:10.943Z,22.13
2017-11-29T02:17:38.573Z,23.13
2017-11-29T02:20:06.200Z,24.20
2017-11-29T02:22:33.847Z,29.73
2017-11-29T02:25:01.469Z,21.90
2017-11-29T02:27:29.107Z,19.47
2017-11-29T02:29:56.722Z,20.00
2017-11-29T02:32:24.401Z,21.57
2017-11-29T02:34:52.071Z,20.90
2017-11-29T02:37:19.738Z,24.07
2017-11-29T02:39:59.195Z,21.20
2017-11-29T02:42:37.716Z,25.00
2017-11-29T02:45:05.426Z,20.00
2017-11-29T02:47:33.053Z,23.33
2017-11-29T02:50:00.874Z,22.80
2017-11-29T02:52:28.550Z,24.17
2017-11-29T02:54:56.193Z,28.60
2017-11-29T02:57:23.922Z,21.07
2017-11-29T02:59:51.623Z,22.33
2017-11-29T03:02:19.306Z,21.20
2017-11-29T03:04:46.992Z,24.37
2017-11-29T03:07:14.613Z,26.97
2017-11-29T03:09:42.301Z,25.80
2017-11-29T03:12:09.908Z,31.67
2017-11-29T03:14:37.562Z,25.37
2017-11-29T03:17:05.179Z,27.20
2017-11-29T03:19:32.854Z,22.70
2017-11-29T03:22:00.446Z,28.20
2017-11-29T03:24:28.078Z,24.93
2017-11-29T03:26:55.663Z,24.50
2017-11-29T03:29:23.285Z,24.77
2017-11-29T03:31:50.933Z,32.13
2017-11-29T03:34:18.643Z,25.83
2017-11-29T03:36:46.250Z,24.17
2017-11-29T03:39:13.826Z,20.40
2017-11-29T03:41:41.453Z,24.10
2017-11-29T03:44:09.055Z,23.33
2017-11-29T03:46:36.683Z,22.87
2017-11-29T03:49:04.267Z,22.70
2017-11-29T03:51:31.900Z,24.73
2017-11-29T03:53:59.502Z,21.93
2017-11-29T03:56:27.126Z,19.70
2017-11-29T03:58:54.731Z,21.30
2017-11-29T04:01:22.427Z,20.47
2017-11-29T04:03:50.100Z,20.73
2017-11-29T04:06:17.738Z,20.10
2017-11-29T04:08:45.413Z,21.90
2017-11-29T04:11:13.077Z,24.17
2017-11-29T04:13:40.690Z,23.87
2017-11-29T04:16:08.360Z,24.70
2017-11-29T04:18:35.951Z,20.53
2017-11-29T04:21:03.597Z,21.20
2017-11-29T04:23:31.268Z,22.07
2017-11-29T04:25:58.903Z,22.43
2017-11-29T04:28:26.511Z,24.03
2017-11-29T04:30:54.150Z,22.70
2017-11-29T04:33:21.761Z,22.17
2017-11-29T04:35:49.449Z,25.10
2017-11-29T04:38:17.054Z,22.47
2017-11-29T04:40:44.644Z,23.07
2017-11-29T04:43:12.284Z,23.60
2017-11-29T04:45:39.877Z,23.67
2017-11-29T04:48:07.503Z,22.87
2017-11-29T04:50:35.161Z,26.13
2017-11-29T04:53:02.821Z,24.63
2017-11-29T04:55:30.520Z,28.23
2017-11-29T04:57:58.167Z,24.37
2017-11-29T05:00:25.777Z,21.27
2017-11-29T05:02:53.422Z,26.33
2017-11-29T05:05:21.041Z,22.37
2017-11-29T05:07:48.752Z,23.30
2017-11-29T05:10:16.349Z,21.83
2017-11-29T05:12:44.049Z,26.07
2017-11-29T05:15:11.668Z,24.60
2017-11-29T05:17:39.296Z,27.07
2017-11-29T05:20:06.890Z,26.73
2017-11-29T05:22:34.602Z,29.60
2017-11-29T05:25:02.193Z,26.43
2017-11-29T05:27:29.912Z,22.60
2017-11-29T05:29:57.502Z,23.80
2017-11-29T05:32:25.278Z,34.97
2017-11-29T05:34:52.880Z,26.23
2017-11-29T05:37:20.478Z,22.60
2017-11-29T05:39:48.187Z,25.07
2017-11-29T05:42:15.817Z,94.23
2017-11-29T05:44:43.471Z,130.97
2017-11-29T05:47:11.115Z,251.27
2017-11-29T05:49:38.770Z,125.57
2017-11-29T05:52:06.372Z,117.60
2017-11-29T05:54:34.088Z,130.10
2017-11-29T05:57:01.712Z,160.13
2017-11-29T05:59:29.401Z,31.70
2017-11-29T06:01:57.010Z,26.57
2017-11-29T06:04:24.679Z,28.77
2017-11-29T06:06:52.299Z,30.23
2017-11-29T06:09:19.943Z,26.07
2017-11-29T06:11:47.564Z,21.83
2017-11-29T06:14:15.209Z,21.97
2017-11-29T06:16:42.807Z,26.20
2017-11-29T06:19:10.456Z,31.77
2017-11-29T06:21:38.287Z,28.90
2017-11-29T06:24:05.920Z,25.07
2017-11-29T06:26:33.603Z,27.70
2017-11-29T06:29:02.689Z,22.80
2017-11-29T06:31:30.319Z,27.30
2017-11-29T06:33:57.989Z,26.30
2017-11-29T06:36:25.590Z,23.70
2017-11-29T06:38:53.233Z,27.33
2017-11-29T06:41:20.826Z,24.57
2017-11-29T06:43:48.425Z,25.20
2017-11-29T06:46:16.060Z,23.57
2017-11-29T06:48:43.657Z,26.70
2017-11-29T06:51:13.088Z,26.10
2017-11-29T06:53:41.783Z,24.50
2017-11-29T06:56:09.430Z,29.77
2017-11-29T06:58:37.031Z,95.07
2017-11-29T07:01:04.688Z,169.63
2017-11-29T07:03:32.290Z,121.23
2017-11-29T07:05:59.926Z,141.73
2017-11-29T07:08:27.601Z,166.53
2017-11-29T07:10:55.325Z,153.73
2017-11-29T07:13:23.065Z,63.73
2017-11-29T07:15:50.800Z,43.67
2017-11-29T07:18:18.404Z,27.87
2017-11-29T07:20:46.040Z,33.10
2017-11-29T07:23:13.645Z,31.30
2017-11-29T07:25:41.293Z,31.93
2017-11-29T07:28:08.949Z,34.07
2017-11-29T07:30:36.673Z,32.30
2017-11-29T07:33:04.293Z,31.97
2017-11-29T07:35:31.978Z,39.93
2017-11-29T07:37:59.612Z,34.10
2017-11-29T07:40:27.195Z,28.93
2017-11-29T07:42:54.868Z,28.50
2017-11-29T07:45:22.526Z,28.57
2017-11-29T07:47:50.222Z,31.87
2017-11-29T07:50:17.874Z,28.97
2017-11-29T07:52:45.565Z,33.87
2017-11-29T07:55:13.231Z,31.33
2017-11-29T07:57:41.384Z,33.10
2017-11-29T08:00:09.070Z,31.97
2017-11-29T08:02:36.804Z,29.43
2017-11-29T08:05:04.825Z,30.33
2017-11-29T08:07:32.534Z,29.53
2017-11-29T08:10:00.210Z,32.80
2017-11-29T08:12:27.915Z,28.57
2017-11-29T08:14:55.586Z,33.43
2017-11-29T08:17:23.378Z,29.40
2017-11-29T08:19:51.054Z,32.07
2017-11-29T08:22:18.772Z,27.33
2017-11-29T08:24:46.438Z,32.33
2017-11-29T08:27:14.185Z,26.50
2017-11-29T08:29:41.849Z,26.00
2017-11-29T08:32:10.430Z,30.10
2017-11-29T08:34:39.106Z,30.30
2017-11-29T08:37:06.815Z,33.43
2017-11-29T08:39:34.564Z,27.20
2017-11-29T08:42:03.059Z,25.87
2017-11-29T08:44:30.838Z,26.67
2017-11-29T08:46:58.552Z,28.23
2017-11-29T08:49:26.299Z,26.83
2017-11-29T08:51:53.963Z,29.73
2017-11-29T08:54:21.676Z,25.77
2017-11-29T08:56:49.376Z,26.27
2017-11-29T08:59:17.021Z,29.00
2017-11-29T09:01:44.676Z,65.60
2017-11-29T09:04:12.426Z,316.37
2017-11-29T09:06:40.034Z,150.80
2017-11-29T09:09:07.692Z,126.47
2017-11-29T09:11:35.366Z,282.63
2017-11-29T09:14:03.052Z,390.03
2017-11-29T09:16:30.712Z,97.60
2017-11-29T09:18:58.368Z,44.63
2017-11-29T09:21:25.977Z,42.07
2017-11-29T09:23:53.680Z,53.33
2017-11-29T09:26:21.345Z,38.23
2017-11-29T09:28:49.190Z,31.90
2017-11-29T09:31:16.861Z,37.07
2017-11-29T09:33:44.589Z,22.77
2017-11-29T09:36:12.280Z,28.07
2017-11-29T09:38:39.944Z,22.00
2017-11-29T09:41:07.670Z,23.77
2017-11-29T09:43:35.381Z,26.00
2017-11-29T09:46:03.105Z,25.87
2017-11-29T09:48:30.756Z,29.63
2017-11-29T09:50:58.508Z,27.53
2017-11-29T09:53:26.242Z,29.33
2017-11-29T09:55:54.009Z,23.53
2017-11-29T09:58:21.697Z,25.00
2017-11-29T10:00:49.365Z,25.47
2017-11-29T10:03:16.963Z,28.67
2017-11-29T10:05:44.611Z,29.67
2017-11-29T10:08:12.316Z,27.10
2017-11-29T10:10:40.009Z,24.13
2017-11-29T10:13:07.655Z,22.73
2017-11-29T10:15:35.384Z,21.93
2017-11-29T10:18:03.068Z,23.53
2017-11-29T10:20:30.736Z,22.27
2017-11-29T10:22:58.439Z,27.43
2017-11-29T10:25:26.183Z,23.47
2017-11-29T10:27:53.919Z,27.57
2017-11-29T10:30:21.588Z,21.33
2017-11-29T10:32:49.309Z,25.73
2017-11-29T10:35:16.995Z,27.37
2017-11-29T10:37:44.716Z,25.80
2017-11-29T10:40:12.374Z,21.23
2017-11-29T10:42:40.076Z,21.63
2017-11-29T10:45:07.734Z,26.67
2017-11-29T10:47:35.461Z,24.73
2017-11-29T10:50:03.142Z,24.30
2017-11-29T10:52:30.888Z,22.77
2017-11-29T10:54:58.562Z,24.00
2017-11-29T10:57:26.199Z,23.77
2017-11-29T10:59:53.885Z,20.33
2017-11-29T11:02:21.585Z,22.13
2017-11-29T11:04:49.265Z,27.30
2017-11-29T11:07:17.054Z,21.73
2017-11-29T11:09:44.877Z,22.53
2017-11-29T11:12:12.614Z,24.43
2017-11-29T11:14:40.361Z,22.73
2017-11-29T11:17:08.057Z,24.30
2017-11-29T11:19:35.726Z,30.90
2017-11-29T11:22:03.386Z,52.70
2017-11-29T11:24:31.212Z,81.97
2017-11-29T11:26:58.983Z,130.50
2017-11-29T11:29:26.730Z,66.20
2017-11-29T11:31:54.412Z,49.47
2017-11-29T11:34:22.126Z,30.77
2017-11-29T11:36:49.809Z,26.90
2017-11-29T11:39:17.528Z,26.20
2017-11-29T11:41:45.332Z,27.67
2017-11-29T11:44:13.113Z,27.20
2017-11-29T11:46:40.762Z,27.27
2017-11-29T11:49:08.531Z,28.83
2017-11-29T11:51:36.243Z,27.90
2017-11-29T11:54:03.836Z,30.60
2017-11-29T11:56:31.549Z,26.53
2017-11-29T11:58:59.259Z,27.53
2017-11-29T12:01:27.015Z,25.37
2017-11-29T12:03:54.679Z,25.10
2017-11-29T12:06:22.390Z,30.20
2017-11-29T12:08:50.100Z,33.87
2017-11-29T12:11:17.809Z,34.53
2017-11-29T12:13:45.417Z,27.40
2017-11-29T12:16:13.129Z,27.13
2017-11-29T12:18:40.735Z,27.10
2017-11-29T12:21:08.451Z,28.87
2017-11-29T12:23:36.131Z,27.97
2017-11-29T12:26:03.813Z,24.20
2017-11-29T12:28:31.423Z,28.20
2017-11-29T12:30:59.177Z,29.80
2017-11-29T12:33:26.866Z,27.37
2017-11-29T12:35:54.593Z,29.00
2017-11-29T12:38:22.262Z,72.43
2017-11-29T12:40:49.982Z,32.80
2017-11-29T12:43:17.659Z,35.60
2017-11-29T12:45:45.319Z,33.40
2017-11-29T12:48:24.715Z,30.73
2017-11-29T12:51:04.057Z,35.23
2017-11-29T12:53:31.803Z,24.50
2017-11-29T12:55:59.469Z,29.80
2017-11-29T12:58:27.226Z,24.10
2017-11-29T13:00:54.899Z,23.63
2017-11-29T13:03:22.560Z,29.03
2017-11-29T13:05:50.257Z,25.63
2017-11-29T13:08:17.979Z,26.27
2017-11-29T13:10:45.689Z,24.90
2017-11-29T13:13:13.406Z,23.90
2017-11-29T13:15:41.098Z,22.63
2017-11-29T13:18:08.771Z,21.80
2017-11-29T13:20:36.459Z,27.60
2017-11-29T13:23:04.215Z,19.67
2017-11-29T13:25:31.900Z,22.03
2017-11-29T13:27:59.680Z,23.90
2017-11-29T13:30:27.397Z,28.30
2017-11-29T13:32:55.117Z,20.70
2017-11-29T13:35:22.724Z,20.10
2017-11-29T13:37:50.426Z,21.60
2017-11-29T13:40:18.110Z,20.37
2017-11-29T13:42:45.818Z,20.70
2017-11-29T13:45:13.487Z,22.47
2017-11-29T13:47:41.190Z,21.63
2017-11-29T13:50:08.890Z,22.70
2017-11-29T13:52:36.589Z,16.33
2017-11-29T13:55:04.260Z,21.80
2017-11-29T13:57:32.029Z,17.00
2017-11-29T13:59:59.736Z,19.90
2017-11-29T14:02:27.438Z,24.67
2017-11-29T14:04:55.147Z,22.80
2017-11-29T14:07:22.809Z,26.80
2017-11-29T14:09:50.550Z,24.27
2017-11-29T14:12:18.441Z,22.57
2017-11-29T14:14:46.108Z,27.43
2017-11-29T14:17:13.814Z,32.30
2017-11-29T14:19:41.472Z,29.83
2017-11-29T14:22:09.207Z,25.77
2017-11-29T14:24:36.876Z,22.33
2017-11-29T14:27:04.569Z,24.40
2017-11-29T14:29:32.243Z,17.27
2017-11-29T14:31:59.832Z,19.90
2017-11-29T14:34:27.468Z,21.70
2017-11-29T14:36:55.056Z,22.40
2017-11-29T14:39:22.689Z,21.03
2017-11-29T14:41:50.336Z,21.23
2017-11-29T14:44:18.068Z,41.10
2017-11-29T14:46:45.648Z,22.53
2017-11-29T14:49:13.338Z,26.63
2017-11-29T14:51:41.038Z,25.17
2017-11-29T14:54:08.743Z,23.93
2017-11-29T14:56:36.402Z,22.70
2017-11-29T14:59:04.177Z,22.20
2017-11-29T15:01:31.882Z,21.37
2017-11-29T15:03:59.617Z,19.37
2017-11-29T15:06:27.302Z,20.23
2017-11-29T15:08:55.007Z,17.90
2017-11-29T15:11:22.638Z,18.10
2017-11-29T15:13:50.261Z,17.83
2017-11-29T15:16:17.867Z,19.90
2017-11-29T15:18:45.549Z,19.83
2017-11-29T15:21:13.217Z,16.87
2017-11-29T15:23:40.842Z,19.70
2017-11-29T15:26:08.450Z,19.30
2017-11-29T15:28:36.203Z,17.03
2017-11-29T15:31:03.839Z,25.43
2017-11-29T15:33:33.089Z,18.90
2017-11-29T15:36:00.787Z,17.70
2017-11-29T15:38:28.383Z,15.70
2017-11-29T15:40:56.004Z,20.80
2017-11-29T15:43:23.652Z,19.57
2017-11-29T15:45:51.293Z,19.83
2017-11-29T15:48:18.976Z,16.23
2017-11-29T15:50:46.680Z,16.60
2017-11-29T15:53:14.343Z,14.53
2017-11-29T15:55:42.001Z,13.90
2017-11-29T15:58:09.716Z,16.63
2017-11-29T16:00:37.443Z,17.57
2017-11-29T16:03:05.102Z,19.77
2017-11-29T16:05:32.810Z,16.70
2017-11-29T16:08:00.482Z,13.90
2017-11-29T16:10:28.223Z,18.07
2017-11-29T16:12:55.852Z,21.00
2017-11-29T16:15:23.501Z,64.10
2017-11-29T16:17:51.121Z,703.73
2017-11-29T16:20:18.769Z,354.57
2017-11-29T16:22:46.431Z,358.53
2017-11-29T16:25:14.162Z,207.40
2017-11-29T16:27:41.890Z,50.97
2017-11-29T16:30:09.672Z,58.87
2017-11-29T16:32:37.339Z,93.50
2017-11-29T16:35:05.029Z,52.50
2017-11-29T16:37:32.790Z,57.73
2017-11-29T16:40:00.468Z,63.93
2017-11-29T16:42:28.193Z,91.43
2017-11-29T16:44:55.894Z,52.47
2017-11-29T16:47:23.614Z,33.97
2017-11-29T16:49:51.299Z,24.33
2017-11-29T16:52:18.999Z,17.90
2017-11-29T16:54:46.670Z,18.77
2017-11-29T16:57:14.388Z,20.17
2017-11-29T16:59:42.072Z,19.93
2017-11-29T17:02:09.781Z,24.60
2017-11-29T17:04:37.472Z,18.13
2017-11-29T17:07:05.198Z,18.10
2017-11-29T17:09:32.885Z,17.50
2017-11-29T17:12:00.619Z,21.30
2017-11-29T17:14:28.265Z,18.10
2017-11-29T17:16:55.976Z,17.63
2017-11-29T17:19:23.605Z,19.73
2017-11-29T17:21:51.281Z,16.17
2017-11-29T17:24:19.009Z,17.20
2017-11-29T17:26:46.675Z,15.30
2017-11-29T17:29:14.312Z,17.83
2017-11-29T17:31:42.054Z,17.37
2017-11-29T17:34:09.759Z,19.03
2017-11-29T17:36:37.382Z,16.40
2017-11-29T17:39:05.116Z,17.87
2017-11-29T17:41:32.779Z,15.23
2017-11-29T17:44:00.479Z,18.10
2017-11-29T17:46:28.148Z,18.00
2017-11-29T17:48:55.837Z,17.27
2017-11-29T17:51:23.540Z,19.07
2017-11-29T17:53:51.297Z,22.50
2017-11-29T17:56:18.984Z,19.43
2017-11-29T17:58:46.748Z,16.47
2017-11-29T18:01:14.383Z,20.00
2017-11-29T18:03:42.036Z,20.53
2017-11-29T18:06:09.692Z,21.00
2017-11-29T18:08:37.396Z,23.43
2017-11-29T18:11:05.056Z,20.33
2017-11-29T18:13:32.740Z,21.73
2017-11-29T18:16:00.417Z,19.73
2017-11-29T18:18:28.090Z,24.80
2017-11-29T18:20:55.825Z,23.63
2017-11-29T18:23:23.499Z,21.20
2017-11-29T18:25:51.180Z,26.73
2017-11-29T18:28:18.794Z,23.10
2017-11-29T18:30:46.449Z,25.10
2017-11-29T18:33:14.077Z,23.50
2017-11-29T18:35:41.723Z,20.70
2017-11-29T18:38:09.332Z,20.73
2017-11-29T18:40:36.975Z,21.77
2017-11-29T18:43:04.639Z,17.40
2017-11-29T18:45:32.345Z,21.43
2017-11-29T18:48:00.028Z,23.73
2017-11-29T18:50:27.744Z,19.63
2017-11-29T18:52:55.410Z,23.80
2017-11-29T18:55:23.048Z,21.10
2017-11-29T18:57:50.755Z,25.33
2017-11-29T19:00:18.468Z,32.83
2017-11-29T19:02:46.147Z,25.37
2017-11-29T19:05:13.823Z,23.73
2017-11-29T19:07:41.481Z,21.20
2017-11-29T19:10:09.136Z,24.60
2017-11-29T19:12:36.885Z,23.17
2017-11-29T19:15:04.554Z,27.70
2017-11-29T19:17:32.257Z,26.40
2017-11-29T19:19:59.849Z,24.37
2017-11-29T19:22:27.487Z,23.07
2017-11-29T19:24:55.170Z,21.67
2017-11-29T19:27:22.905Z,22.50
2017-11-29T19:29:50.588Z,22.33
2017-11-29T19:32:18.311Z,21.13
2017-11-29T19:34:45.962Z,20.70
2017-11-29T19:37:13.696Z,21.00
2017-11-29T19:39:41.319Z,20.90
2017-11-29T19:42:09.037Z,23.00
2017-11-29T19:44:36.711Z,20.37
2017-11-29T19:47:04.417Z,21.53
2017-11-29T19:49:32.092Z,21.20
2017-11-29T19:51:59.805Z,24.17
2017-11-29T19:54:27.400Z,22.60
2017-11-29T19:56:55.100Z,20.27
2017-11-29T19:59:22.796Z,24.47
2017-11-29T20:01:50.623Z,23.03
2017-11-29T20:04:18.293Z,21.40
2017-11-29T20:06:46.004Z,21.13
2017-11-29T20:09:13.666Z,24.40
2017-11-29T20:11:41.370Z,21.60
2017-11-29T20:14:09.082Z,23.60
2017-11-29T20:16:36.734Z,23.63
2017-11-29T20:19:04.454Z,24.27
2017-11-29T20:21:32.045Z,23.83
2017-11-29T20:23:59.790Z,29.73
2017-11-29T20:26:27.465Z,19.33
2017-11-29T20:28:55.153Z,26.97
2017-11-29T20:31:22.820Z,24.43
2017-11-29T20:33:50.496Z,21.13
2017-11-29T20:36:18.174Z,21.23
2017-11-29T20:38:45.896Z,22.67
2017-11-29T20:41:13.554Z,23.70
2017-11-29T20:43:41.308Z,23.30
2017-11-29T20:46:08.992Z,23.40
2017-11-29T20:48:36.666Z,21.50
2017-11-29T20:51:04.381Z,19.33
2017-11-29T20:53:32.017Z,21.80
2017-11-29T20:55:59.730Z,19.53
2017-11-29T20:58:27.436Z,20.53
2017-11-29T21:00:55.122Z,23.33
2017-11-29T21:03:22.718Z,21.83
2017-11-29T21:05:50.429Z,21.23
2017-11-29T21:08:18.114Z,22.10
2017-11-29T21:10:45.824Z,31.57
2017-11-29T21:13:13.483Z,21.60
2017-11-29T21:15:41.141Z,23.50
2017-11-29T21:18:08.768Z,25.83
2017-11-29T21:20:36.434Z,24.97
2017-11-29T21:23:04.036Z,27.00
2017-11-29T21:25:31.688Z,27.00
2017-11-29T21:27:59.292Z,28.27
2017-11-29T21:30:26.922Z,27.10
2017-11-29T21:32:54.587Z,25.90
2017-11-29T21:35:22.232Z,30.70
2017-11-29T21:37:49.832Z,27.17
2017-11-29T21:40:17.489Z,25.30
2017-11-29T21:42:45.093Z,27.83
2017-11-29T21:45:12.697Z,28.57
2017-11-29T21:47:40.363Z,33.90
2017-11-29T21:50:08.002Z,30.90
2017-11-29T21:52:35.781Z,24.73
2017-11-29T21:55:04.686Z,25.87
2017-11-29T21:57:32.844Z,29.30
2017-11-29T22:00:00.564Z,26.27
2017-11-29T22:02:28.194Z,28.57
2017-11-29T22:04:55.998Z,26.97
2017-11-29T22:07:23.704Z,24.33
2017-11-29T22:09:51.370Z,30.03
2017-11-29T22:12:19.002Z,28.93
2017-11-29T22:14:46.606Z,27.20
2017-11-29T22:17:14.369Z,28.20
2017-11-29T22:19:41.965Z,27.53
2017-11-29T22:22:09.682Z,27.70
2017-11-29T22:24:37.348Z,35.33
2017-11-29T22:27:05.066Z,29.17
2017-11-29T22:29:32.741Z,33.03
2017-11-29T22:32:00.455Z,28.50
2017-11-29T22:34:28.114Z,26.30
2017-11-29T22:36:55.783Z,31.90
2017-11-29T22:39:23.485Z,28.57
2017-11-29T22:41:51.143Z,27.20
2017-11-29T22:44:18.857Z,30.90
2017-11-29T22:46:47.071Z,35.57
2017-11-29T22:49:14.775Z,30.80
2017-11-29T22:51:42.383Z,32.70
2017-11-29T22:54:10.085Z,31.53
2017-11-29T22:56:37.788Z,28.60
2017-11-29T22:59:05.541Z,32.40
2017-11-29T23:01:33.203Z,30.77
2017-11-29T23:04:00.853Z,30.57
2017-11-29T23:06:28.499Z,32.93
2017-11-29T23:08:56.557Z,36.87
2017-11-29T23:11:24.222Z,31.87
2017-11-29T23:13:51.956Z,34.23
2017-11-29T23:16:19.686Z,35.73
2017-11-29T23:18:47.417Z,29.33
2017-11-29T23:21:15.111Z,30.57
2017-11-29T23:23:42.778Z,29.30
2017-11-29T23:26:10.489Z,31.73
2017-11-29T23:28:38.245Z,29.77
2017-11-29T23:31:05.917Z,31.30
2017-11-29T23:33:33.579Z,33.00
2017-11-29T23:36:01.273Z,36.40
2017-11-29T23:38:28.926Z,34.40
2017-11-29T23:40:56.663Z,31.53
2017-11-29T23:43:24.250Z,29.70
2017-11-29T23:45:51.950Z,33.57
2017-11-29T23:48:19.551Z,31.70
2017-11-29T23:50:47.267Z,31.97
2017-11-29T23:53:14.939Z,36.37
2017-11-29T23:55:42.644Z,31.13
2017-11-29T23:58:11.473Z,33.60
